createdAt,value
2023-04-06T00:01:58.953Z,100.00
2023-04-06T00:04:27.568Z,100.00
2023-04-06T00:06:55.565Z,100.00
2023-04-06T00:09:23.463Z,100.00
2023-04-06T00:11:52.763Z,100.00
2023-04-06T00:14:21.084Z,100.00
2023-04-06T00:16:48.944Z,100.00
2023-04-06T00:19:17.161Z,100.00
2023-04-06T00:21:45.002Z,100.00
2023-04-06T00:24:12.841Z,100.00
2023-04-06T00:26:40.666Z,100.00
2023-04-06T00:29:10.663Z,100.00
2023-04-06T00:31:38.752Z,100.00
2023-04-06T00:34:07.524Z,100.00
2023-04-06T00:36:35.335Z,100.00
2023-04-06T00:39:03.240Z,100.00
2023-04-06T00:41:31.226Z,100.00
2023-04-06T00:43:59.211Z,100.00
2023-04-06T00:46:28.600Z,100.00
2023-04-06T00:48:56.525Z,100.00
2023-04-06T00:51:24.945Z,100.00
2023-04-06T00:53:52.817Z,100.00
2023-04-06T00:56:22.225Z,100.00
2023-04-06T00:58:53.152Z,100.00
2023-04-06T01:01:21.374Z,100.00
2023-04-06T01:03:53.295Z,100.00
2023-04-06T01:06:22.505Z,100.00
2023-04-06T01:08:58.804Z,100.00
2023-04-06T01:11:28.116Z,100.00
2023-04-06T01:13:56.027Z,100.00
2023-04-06T01:16:29.690Z,100.00
2023-04-06T01:19:17.657Z,100.00
2023-04-06T01:21:50.318Z,100.00
2023-04-06T01:24:29.905Z,100.00
2023-04-06T01:27:16.439Z,100.00
2023-04-06T01:29:53.112Z,100.00
2023-04-06T01:32:47.342Z,100.00
2023-04-06T01:35:20.897Z,100.00
2023-04-06T01:37:59.723Z,100.00
2023-04-06T01:40:33.776Z,100.00
2023-04-06T01:43:01.835Z,100.00
2023-04-06T01:45:38.441Z,100.00
2023-04-06T01:48:16.182Z,100.00
2023-04-06T01:50:43.997Z,100.00
2023-04-06T01:53:15.432Z,100.00
2023-04-06T01:55:47.693Z,100.00
2023-04-06T01:58:24.136Z,100.00
2023-04-06T02:00:52.252Z,100.00
2023-04-06T02:03:20.250Z,100.00
2023-04-06T02:05:49.176Z,100.00
2023-04-06T02:08:26.204Z,100.00
2023-04-06T02:10:55.566Z,100.00
2023-04-06T02:13:34.826Z,100.00
2023-04-06T02:16:03.573Z,100.00
2023-04-06T02:18:32.538Z,100.00
2023-04-06T02:21:00.364Z,100.00
2023-04-06T02:23:28.186Z,100.00
2023-04-06T02:25:59.854Z,100.00
2023-04-06T02:28:28.219Z,100.00
2023-04-06T02:30:56.083Z,100.00
2023-04-06T02:33:28.716Z,100.00
2023-04-06T02:35:56.653Z,100.00
2023-04-06T02:38:24.935Z,100.00
2023-04-06T02:40:54.011Z,100.00
2023-04-06T02:43:28.601Z,100.00
2023-04-06T02:46:04.351Z,100.00
2023-04-06T02:48:37.227Z,100.00
2023-04-06T02:51:06.083Z,100.00
2023-04-06T02:53:34.480Z,100.00
2023-04-06T02:56:02.656Z,100.00
2023-04-06T02:58:42.505Z,100.00
2023-04-06T03:01:10.463Z,100.00
2023-04-06T03:03:39.837Z,100.00
2023-04-06T03:06:13.082Z,100.00
2023-04-06T03:08:41.507Z,100.00
2023-04-06T03:11:09.360Z,100.00
2023-04-06T03:13:42.852Z,100.00
2023-04-06T03:16:11.998Z,100.00
2023-04-06T03:18:40.045Z,100.00
2023-04-06T03:21:07.911Z,100.00
2023-04-06T03:23:45.940Z,100.00
2023-04-06T03:26:13.771Z,100.00
2023-04-06T03:28:42.993Z,100.00
2023-04-06T03:31:10.901Z,100.00
2023-04-06T03:33:41.330Z,100.00
2023-04-06T03:36:12.242Z,100.00
2023-04-06T03:38:42.905Z,100.00
2023-04-06T03:41:14.112Z,100.00
2023-04-06T03:43:47.934Z,100.00
2023-04-06T03:46:15.873Z,100.00
2023-04-06T03:48:43.793Z,100.00
2023-04-06T03:51:15.263Z,100.00
2023-04-06T03:53:43.075Z,100.00
2023-04-06T03:56:12.370Z,100.00
2023-04-06T03:58:40.307Z,100.00
2023-04-06T04:01:09.512Z,100.00
2023-04-06T04:03:37.454Z,100.00
2023-04-06T04:06:05.475Z,100.00
2023-04-06T04:08:33.542Z,100.00
2023-04-06T04:11:01.522Z,100.00
2023-04-06T04:13:30.186Z,100.00
2023-04-06T04:15:58.040Z,100.00
2023-04-06T04:18:27.331Z,100.00
2023-04-06T04:20:55.261Z,100.00
2023-04-06T04:23:24.401Z,100.00
2023-04-06T04:25:52.701Z,100.00
2023-04-06T04:28:20.759Z,100.00
2023-04-06T04:30:48.756Z,100.00
2023-04-06T04:33:16.928Z,100.00
2023-04-06T04:35:47.178Z,100.00
2023-04-06T04:38:19.105Z,100.00
2023-04-06T04:40:52.621Z,100.00
2023-04-06T04:43:20.580Z,100.00
2023-04-06T04:45:48.763Z,100.00
2023-04-06T04:48:28.509Z,100.00
2023-04-06T04:51:02.313Z,100.00
2023-04-06T04:53:41.355Z,100.00
2023-04-06T04:56:19.039Z,100.00
2023-04-06T04:58:49.240Z,100.00
2023-04-06T05:01:17.133Z,100.00
2023-04-06T05:03:46.554Z,100.00
2023-04-06T05:06:19.066Z,100.00
2023-04-06T05:08:46.965Z,100.00
2023-04-06T05:11:15.078Z,100.00
2023-04-06T05:13:47.309Z,100.00
2023-04-06T05:16:19.947Z,100.00
2023-04-06T05:18:49.374Z,100.00
2023-04-06T05:21:19.010Z,100.00
2023-04-06T05:24:12.699Z,100.00
2023-04-06T05:26:42.695Z,100.00
2023-04-06T05:29:21.066Z,100.00
2023-04-06T05:31:49.483Z,100.00
2023-04-06T05:34:17.491Z,100.00
2023-04-06T05:36:47.224Z,100.00
2023-04-06T05:39:21.597Z,100.00
2023-04-06T05:41:52.083Z,100.00
2023-04-06T05:44:30.870Z,100.00
2023-04-06T05:47:09.437Z,100.00
2023-04-06T05:49:38.936Z,100.00
2023-04-06T05:52:13.433Z,100.00
2023-04-06T05:54:45.273Z,100.00
2023-04-06T05:57:13.179Z,100.00
2023-04-06T05:59:41.299Z,100.00
2023-04-06T06:02:09.349Z,100.00
2023-04-06T06:04:42.140Z,100.00
2023-04-06T06:07:10.337Z,100.00
2023-04-06T06:09:45.704Z,100.00
2023-04-06T06:12:24.660Z,100.00
2023-04-06T06:14:52.721Z,100.00
2023-04-06T06:17:21.958Z,100.00
2023-04-06T06:19:50.317Z,100.00
2023-04-06T06:22:18.373Z,100.00
2023-04-06T06:24:50.724Z,100.00
2023-04-06T06:27:21.406Z,100.00
2023-04-06T06:29:49.498Z,100.00
2023-04-06T06:32:17.720Z,100.00
2023-04-06T06:34:48.641Z,100.00
2023-04-06T06:37:16.564Z,100.00
2023-04-06T06:39:44.447Z,100.00
2023-04-06T06:42:14.828Z,100.00
2023-04-06T06:45:06.781Z,100.00
2023-04-06T06:47:34.708Z,100.00
2023-04-06T06:50:03.873Z,100.00
2023-04-06T06:52:31.835Z,100.00
2023-04-06T06:55:01.320Z,100.00
2023-04-06T06:57:30.752Z,100.00
2023-04-06T07:00:00.873Z,100.00
2023-04-06T07:02:29.811Z,100.00
2023-04-06T07:04:58.074Z,100.00
2023-04-06T07:07:26.157Z,100.00
2023-04-06T07:09:53.973Z,100.00
2023-04-06T07:12:21.832Z,100.00
2023-04-06T07:14:51.026Z,100.00
2023-04-06T07:17:19.543Z,100.00
2023-04-06T07:19:47.616Z,100.00
2023-04-06T07:22:15.432Z,100.00
2023-04-06T07:24:43.223Z,100.00
2023-04-06T07:27:11.409Z,100.00
2023-04-06T07:29:39.633Z,100.00
2023-04-06T07:32:09.134Z,100.00
2023-04-06T07:34:37.035Z,100.00
2023-04-06T07:37:04.933Z,99.32
2023-04-06T07:39:34.119Z,99.04
2023-04-06T07:42:02.236Z,99.53
2023-04-06T07:44:30.275Z,99.62
2023-04-06T07:46:58.393Z,93.85
2023-04-06T07:49:27.640Z,88.18
2023-04-06T07:51:56.299Z,87.52
2023-04-06T07:54:24.246Z,88.13
2023-04-06T07:56:52.070Z,77.06
2023-04-06T07:59:19.889Z,70.58
2023-04-06T08:01:47.902Z,68.17
2023-04-06T08:04:15.847Z,65.66
2023-04-06T08:06:45.088Z,63.71
2023-04-06T08:09:12.928Z,64.98
2023-04-06T08:11:41.391Z,65.23
2023-04-06T08:14:09.647Z,64.55
2023-04-06T08:16:37.674Z,65.03
2023-04-06T08:19:05.537Z,63.12
2023-04-06T08:21:33.354Z,61.59
2023-04-06T08:24:02.709Z,58.96
2023-04-06T08:26:30.748Z,54.68
2023-04-06T08:28:58.710Z,51.60
2023-04-06T08:31:27.251Z,51.95
2023-04-06T08:33:55.102Z,50.73
2023-04-06T08:36:23.915Z,51.16
2023-04-06T08:38:51.956Z,50.73
2023-04-06T08:41:21.667Z,48.87
2023-04-06T08:43:51.438Z,50.88
2023-04-06T08:46:19.648Z,48.63
2023-04-06T08:48:49.720Z,49.94
2023-04-06T08:51:18.030Z,49.43
2023-04-06T08:53:46.105Z,48.51
2023-04-06T08:56:14.496Z,47.39
2023-04-06T08:58:43.985Z,49.04
2023-04-06T09:01:16.447Z,48.13
2023-04-06T09:03:48.155Z,46.55
2023-04-06T09:06:16.494Z,47.12
2023-04-06T09:08:44.354Z,47.16
2023-04-06T09:11:13.078Z,47.73
2023-04-06T09:13:50.518Z,45.71
2023-04-06T09:16:19.335Z,46.80
2023-04-06T09:18:47.733Z,46.32
2023-04-06T09:21:20.650Z,44.16
2023-04-06T09:23:59.916Z,43.11
2023-04-06T09:26:27.871Z,41.75
2023-04-06T09:28:58.410Z,42.60
2023-04-06T09:31:27.588Z,41.38
2023-04-06T09:33:55.858Z,42.54
2023-04-06T09:36:32.715Z,42.73
2023-04-06T09:39:01.955Z,40.30
2023-04-06T09:41:31.387Z,40.42
2023-04-06T09:44:06.247Z,40.25
2023-04-06T09:46:50.555Z,40.42
2023-04-06T09:49:26.251Z,38.76
2023-04-06T09:51:57.659Z,35.85
2023-04-06T09:54:29.972Z,36.44
2023-04-06T09:57:03.206Z,38.18
2023-04-06T09:59:40.238Z,38.20
2023-04-06T10:02:17.499Z,36.94
2023-04-06T10:04:50.143Z,36.74
2023-04-06T10:07:19.164Z,33.77
2023-04-06T10:09:48.755Z,36.72
2023-04-06T10:12:17.365Z,34.85
2023-04-06T10:14:47.112Z,35.03
2023-04-06T10:17:14.964Z,35.16
2023-04-06T10:19:50.413Z,33.95
2023-04-06T10:22:28.417Z,33.73
2023-04-06T10:24:56.472Z,34.62
2023-04-06T10:27:32.010Z,33.52
2023-04-06T10:30:05.363Z,34.55
2023-04-06T10:32:37.887Z,33.61
2023-04-06T10:35:10.402Z,32.25
2023-04-06T10:37:55.374Z,33.16
2023-04-06T10:40:25.995Z,35.00
2023-04-06T10:42:54.816Z,32.14
2023-04-06T10:45:25.459Z,31.68
2023-04-06T10:47:55.294Z,31.50
2023-04-06T10:50:23.907Z,33.01
2023-04-06T10:53:01.235Z,30.06
2023-04-06T10:55:30.718Z,30.81
2023-04-06T10:57:58.624Z,32.77
2023-04-06T11:00:36.258Z,30.43
2023-04-06T11:03:15.393Z,31.30
2023-04-06T11:05:47.704Z,30.14
2023-04-06T11:08:24.804Z,30.13
2023-04-06T11:10:52.657Z,30.67
2023-04-06T11:13:20.600Z,30.36
2023-04-06T11:15:50.097Z,30.15
2023-04-06T11:18:19.863Z,30.25
2023-04-06T11:20:50.098Z,28.58
2023-04-06T11:23:24.736Z,28.69
2023-04-06T11:25:53.573Z,29.34
2023-04-06T11:28:22.197Z,30.03
2023-04-06T11:30:51.428Z,29.61
2023-04-06T11:33:23.445Z,29.69
2023-04-06T11:35:51.421Z,28.38
2023-04-06T11:38:20.431Z,28.89
2023-04-06T11:40:48.333Z,27.69
2023-04-06T11:43:16.376Z,28.15
2023-04-06T11:45:44.674Z,27.24
2023-04-06T11:48:25.399Z,25.80
2023-04-06T11:50:57.901Z,27.13
2023-04-06T11:53:25.866Z,26.66
2023-04-06T11:55:53.814Z,26.56
2023-04-06T11:58:21.665Z,28.00
2023-04-06T12:00:49.490Z,27.87
2023-04-06T12:03:17.347Z,28.17
2023-04-06T12:05:47.136Z,26.76
2023-04-06T12:08:15.003Z,28.27
2023-04-06T12:10:42.830Z,27.17
2023-04-06T12:13:10.611Z,25.90
2023-04-06T12:15:38.468Z,26.86
2023-04-06T12:18:06.310Z,27.26
2023-04-06T12:20:34.131Z,26.06
2023-04-06T12:23:03.276Z,26.51
2023-04-06T12:25:32.243Z,27.04
2023-04-06T12:28:00.448Z,28.73
2023-04-06T12:30:28.238Z,27.55
2023-04-06T12:32:56.319Z,27.34
2023-04-06T12:35:24.207Z,27.22
2023-04-06T12:37:52.038Z,26.00
2023-04-06T12:40:22.356Z,26.90
2023-04-06T12:42:50.301Z,26.49
2023-04-06T12:45:21.245Z,26.62
2023-04-06T12:47:49.065Z,25.69
2023-04-06T12:50:16.903Z,25.62
2023-04-06T12:52:44.777Z,25.19
2023-04-06T12:55:12.611Z,24.71
2023-04-06T12:57:42.539Z,26.68
2023-04-06T13:00:11.124Z,26.81
2023-04-06T13:02:39.441Z,26.75
2023-04-06T13:05:07.914Z,26.00
2023-04-06T13:07:35.728Z,25.31
2023-04-06T13:10:03.594Z,26.05
2023-04-06T13:12:31.701Z,25.14
2023-04-06T13:15:01.003Z,26.40
2023-04-06T13:17:29.578Z,25.58
2023-04-06T13:19:57.744Z,24.65
2023-04-06T13:22:25.666Z,24.39
2023-04-06T13:24:53.475Z,25.27
2023-04-06T13:27:21.513Z,24.75
2023-04-06T13:29:49.295Z,24.62
2023-04-06T13:32:18.511Z,24.53
2023-04-06T13:34:46.651Z,25.07
2023-04-06T13:37:15.017Z,24.69
2023-04-06T13:39:42.847Z,24.84
2023-04-06T13:42:11.035Z,25.00
2023-04-06T13:44:38.918Z,25.27
2023-04-06T13:47:06.824Z,25.25
2023-04-06T13:49:36.268Z,24.67
2023-04-06T13:52:04.097Z,24.68
2023-04-06T13:54:31.913Z,24.91
2023-04-06T13:56:59.784Z,25.61
2023-04-06T13:59:34.125Z,25.45
2023-04-06T14:02:02.141Z,27.03
2023-04-06T14:04:30.328Z,27.30
2023-04-06T14:07:00.044Z,25.57
2023-04-06T14:09:28.203Z,25.63
2023-04-06T14:11:56.438Z,24.91
2023-04-06T14:14:24.477Z,26.12
2023-04-06T14:16:52.207Z,25.94
2023-04-06T14:19:21.704Z,25.83
2023-04-06T14:21:49.896Z,27.83
2023-04-06T14:24:20.261Z,26.11
2023-04-06T14:26:48.578Z,26.32
2023-04-06T14:29:16.692Z,26.97
2023-04-06T14:31:44.467Z,26.37
2023-04-06T14:34:12.297Z,25.56
2023-04-06T14:36:40.096Z,26.20
2023-04-06T14:39:10.781Z,25.72
2023-04-06T14:41:39.900Z,25.69
2023-04-06T14:44:07.771Z,26.15
2023-04-06T14:46:35.615Z,26.52
2023-04-06T14:49:04.347Z,27.42
2023-04-06T14:51:32.381Z,26.45
2023-04-06T14:54:03.850Z,27.88
2023-04-06T14:56:32.173Z,27.23
2023-04-06T14:59:02.801Z,28.14
2023-04-06T15:01:43.742Z,28.26
2023-04-06T15:04:11.710Z,27.62
2023-04-06T15:06:39.460Z,28.19
2023-04-06T15:09:07.552Z,28.00
2023-04-06T15:11:35.344Z,28.46
2023-04-06T15:14:04.496Z,27.88
2023-04-06T15:16:33.363Z,27.50
2023-04-06T15:19:01.801Z,29.23
2023-04-06T15:21:29.618Z,27.74
2023-04-06T15:23:57.567Z,28.88
2023-04-06T15:26:26.468Z,27.46
2023-04-06T15:28:54.213Z,28.28
2023-04-06T15:31:36.844Z,27.98
2023-04-06T15:34:06.512Z,28.91
2023-04-06T15:36:34.990Z,28.34
2023-04-06T15:39:04.026Z,29.10
2023-04-06T15:41:32.062Z,28.19
2023-04-06T15:43:59.959Z,28.09
2023-04-06T15:46:29.252Z,27.79
2023-04-06T15:48:57.183Z,28.92
2023-04-06T15:51:26.176Z,28.01
2023-04-06T15:53:53.943Z,27.93
2023-04-06T15:56:22.079Z,27.61
2023-04-06T15:58:49.772Z,28.86
2023-04-06T16:01:18.858Z,28.56
2023-04-06T16:03:48.317Z,29.68
2023-04-06T16:06:16.465Z,28.45
2023-04-06T16:08:44.428Z,28.60
2023-04-06T16:11:12.593Z,28.78
2023-04-06T16:13:43.168Z,29.84
2023-04-06T16:16:12.947Z,28.44
2023-04-06T16:18:40.715Z,27.68
2023-04-06T16:21:09.809Z,28.80
2023-04-06T16:23:37.542Z,29.80
2023-04-06T16:26:12.862Z,30.43
2023-04-06T16:28:40.822Z,30.36
2023-04-06T16:31:08.591Z,30.78
2023-04-06T16:33:36.342Z,31.35
2023-04-06T16:36:04.106Z,31.75
2023-04-06T16:38:35.576Z,32.12
2023-04-06T16:41:03.781Z,31.89
2023-04-06T16:43:32.215Z,33.18
2023-04-06T16:46:00.041Z,31.78
2023-04-06T16:48:27.981Z,31.83
2023-04-06T16:50:56.380Z,32.60
2023-04-06T16:53:24.190Z,33.91
2023-04-06T16:55:53.357Z,34.72
2023-04-06T16:58:21.104Z,35.28
2023-04-06T17:00:48.843Z,37.04
2023-04-06T17:03:16.852Z,37.86
2023-04-06T17:05:45.298Z,39.47
2023-04-06T17:08:13.044Z,40.57
2023-04-06T17:10:51.685Z,42.04
2023-04-06T17:13:28.024Z,44.19
2023-04-06T17:15:55.749Z,45.96
2023-04-06T17:18:23.454Z,50.02
2023-04-06T17:20:51.169Z,53.94
2023-04-06T17:23:21.048Z,56.81
2023-04-06T17:25:49.893Z,61.38
2023-04-06T17:28:19.936Z,65.30
2023-04-06T17:30:49.143Z,68.78
2023-04-06T17:33:17.117Z,70.46
2023-04-06T17:35:46.267Z,69.90
2023-04-06T17:38:14.014Z,70.79
2023-04-06T17:40:41.781Z,75.72
2023-04-06T17:43:09.469Z,75.28
2023-04-06T17:45:37.169Z,77.14
2023-04-06T17:48:06.663Z,78.43
2023-04-06T17:50:34.395Z,77.16
2023-04-06T17:53:02.106Z,76.53
2023-04-06T17:55:29.814Z,78.05
2023-04-06T17:57:57.595Z,78.22
2023-04-06T18:00:25.665Z,79.42
2023-04-06T18:02:57.300Z,81.13
2023-04-06T18:05:27.473Z,85.48
2023-04-06T18:07:55.594Z,86.47
2023-04-06T18:10:26.304Z,82.57
2023-04-06T18:12:54.140Z,81.16
2023-04-06T18:15:22.025Z,83.13
2023-04-06T18:18:13.294Z,84.73
2023-04-06T18:20:42.533Z,82.10
2023-04-06T18:23:10.286Z,82.44
2023-04-06T18:25:41.555Z,82.77
2023-04-06T18:28:10.579Z,85.54
2023-04-06T18:30:38.282Z,87.10
2023-04-06T18:33:07.587Z,88.21
2023-04-06T18:35:35.426Z,86.81
2023-04-06T18:38:04.528Z,84.05
2023-04-06T18:40:33.616Z,83.71
2023-04-06T18:43:01.856Z,85.18
2023-04-06T18:45:29.579Z,85.75
2023-04-06T18:47:57.785Z,86.36
2023-04-06T18:50:25.697Z,87.97
2023-04-06T18:52:53.692Z,87.61
2023-04-06T18:55:22.968Z,88.05
2023-04-06T18:57:50.937Z,88.29
2023-04-06T19:00:19.157Z,87.50
2023-04-06T19:02:47.385Z,88.11
2023-04-06T19:05:15.653Z,88.13
2023-04-06T19:07:43.543Z,88.47
2023-04-06T19:10:12.537Z,89.21
2023-04-06T19:12:41.967Z,88.92
2023-04-06T19:15:10.979Z,88.37
2023-04-06T19:17:39.269Z,89.80
2023-04-06T19:20:08.354Z,88.69
2023-04-06T19:22:37.050Z,89.41
2023-04-06T19:25:05.380Z,90.65
2023-04-06T19:27:33.197Z,89.91
2023-04-06T19:30:02.274Z,92.04
2023-04-06T19:32:30.224Z,94.03
2023-04-06T19:34:59.595Z,94.30
2023-04-06T19:37:27.625Z,95.92
2023-04-06T19:39:55.487Z,95.63
2023-04-06T19:42:25.182Z,96.57
2023-04-06T19:44:57.102Z,97.67
2023-04-06T19:47:27.628Z,96.58
2023-04-06T19:49:55.609Z,98.14
2023-04-06T19:52:23.580Z,98.19
2023-04-06T19:54:51.287Z,95.69
2023-04-06T19:57:19.139Z,95.64
2023-04-06T19:59:47.473Z,96.96
2023-04-06T20:02:16.087Z,97.70
2023-04-06T20:04:50.276Z,99.84
2023-04-06T20:07:58.990Z,99.59
2023-04-06T20:10:39.124Z,100.00
2023-04-06T20:13:07.159Z,99.17
2023-04-06T20:15:34.899Z,100.00
2023-04-06T20:18:02.828Z,100.00
2023-04-06T20:20:32.548Z,100.00
2023-04-06T20:23:00.345Z,100.00
2023-04-06T20:25:28.117Z,100.00
2023-04-06T20:27:57.270Z,100.00
2023-04-06T20:30:25.529Z,100.00
2023-04-06T20:32:53.896Z,100.00
2023-04-06T20:35:22.059Z,100.00
2023-04-06T20:37:51.416Z,100.00
2023-04-06T20:40:20.112Z,100.00
2023-04-06T20:42:47.921Z,100.00
2023-04-06T20:45:15.662Z,100.00
2023-04-06T20:47:43.573Z,100.00
2023-04-06T20:50:11.892Z,100.00
2023-04-06T20:52:39.621Z,100.00
2023-04-06T20:55:09.355Z,100.00
2023-04-06T20:57:37.127Z,100.00
2023-04-06T21:00:06.060Z,100.00
2023-04-06T21:02:33.962Z,100.00
2023-04-06T21:05:01.910Z,100.00
2023-04-06T21:07:29.994Z,100.00
2023-04-06T21:09:57.733Z,100.00
2023-04-06T21:12:27.086Z,100.00
2023-04-06T21:14:54.820Z,100.00
2023-04-06T21:17:22.643Z,100.00
2023-04-06T21:19:50.785Z,100.00
2023-04-06T21:22:18.797Z,100.00
2023-04-06T21:24:46.751Z,100.00
2023-04-06T21:27:14.519Z,99.57
2023-04-06T21:29:43.910Z,98.85
2023-04-06T21:32:11.689Z,97.99
2023-04-06T21:34:39.533Z,96.57
2023-04-06T21:37:07.395Z,96.96
2023-04-06T21:39:37.748Z,98.18
2023-04-06T21:42:05.801Z,97.62
2023-04-06T21:44:34.904Z,98.27
2023-04-06T21:47:04.187Z,97.89
2023-04-06T21:49:32.098Z,96.88
2023-04-06T21:51:59.929Z,96.67
2023-04-06T21:54:33.648Z,96.61
2023-04-06T21:57:02.883Z,96.92
2023-04-06T21:59:30.641Z,96.36
2023-04-06T22:01:58.452Z,95.11
2023-04-06T22:04:27.753Z,96.17
2023-04-06T22:06:55.642Z,97.13
2023-04-06T22:09:23.380Z,98.44
2023-04-06T22:11:51.169Z,97.41
2023-04-06T22:14:19.874Z,96.15
2023-04-06T22:16:47.943Z,97.08
2023-04-06T22:19:15.864Z,98.70
2023-04-06T22:21:45.234Z,97.37
2023-04-06T22:24:13.082Z,99.16
2023-04-06T22:26:40.927Z,99.97
2023-04-06T22:29:08.722Z,99.12
2023-04-06T22:31:36.469Z,96.34
2023-04-06T22:34:04.249Z,94.37
2023-04-06T22:36:31.995Z,94.90
2023-04-06T22:39:01.070Z,96.62
2023-04-06T22:41:29.920Z,96.03
2023-04-06T22:43:57.990Z,96.46
2023-04-06T22:46:25.815Z,95.39
2023-04-06T22:48:53.648Z,95.62
2023-04-06T22:51:21.602Z,96.63
2023-04-06T22:53:49.311Z,96.16
2023-04-06T22:56:18.456Z,98.01
2023-04-06T22:58:46.239Z,97.23
2023-04-06T23:01:14.269Z,99.22
2023-04-06T23:03:42.118Z,99.73
2023-04-06T23:06:09.970Z,100.00
2023-04-06T23:08:37.675Z,100.00
2023-04-06T23:11:05.433Z,100.00
2023-04-06T23:13:34.501Z,100.00
2023-04-06T23:16:02.178Z,100.00
2023-04-06T23:18:29.921Z,100.00
2023-04-06T23:20:57.646Z,100.00
2023-04-06T23:23:25.352Z,100.00
2023-04-06T23:25:53.309Z,100.00
2023-04-06T23:28:21.168Z,100.00
2023-04-06T23:30:50.454Z,100.00
2023-04-06T23:33:18.156Z,100.00
2023-04-06T23:35:45.945Z,100.00
2023-04-06T23:38:13.702Z,100.00
2023-04-06T23:40:41.417Z,100.00
2023-04-06T23:43:09.133Z,100.00
2023-04-06T23:45:41.529Z,100.00
2023-04-06T23:48:10.907Z,100.00
2023-04-06T23:50:39.384Z,100.00
2023-04-06T23:53:07.212Z,100.00
2023-04-06T23:55:35.156Z,100.00
2023-04-06T23:58:04.043Z,93.43
